createdAt,value
2022-09-17T00:01:27.328Z,3.45
2022-09-17T00:03:57.355Z,3.80
2022-09-17T00:06:26.409Z,3.22
2022-09-17T00:08:55.517Z,3.50
2022-09-17T00:11:26.659Z,3.35
2022-09-17T00:13:56.962Z,3.30
2022-09-17T00:16:28.149Z,3.42
2022-09-17T00:18:57.679Z,3.15
2022-09-17T00:21:26.188Z,3.67
2022-09-17T00:24:02.428Z,3.35
2022-09-17T00:26:31.928Z,3.10
2022-09-17T00:29:02.052Z,3.50
2022-09-17T00:31:31.472Z,3.10
2022-09-17T00:34:00.477Z,3.45
2022-09-17T00:36:28.930Z,3.10
2022-09-17T00:38:59.894Z,2.83
2022-09-17T00:41:29.883Z,2.95
2022-09-17T00:43:59.623Z,3.15
2022-09-17T00:46:34.467Z,3.22
2022-09-17T00:49:06.852Z,3.33
2022-09-17T00:51:38.270Z,3.40
2022-09-17T00:54:09.583Z,3.20
2022-09-17T00:56:40.249Z,3.35
2022-09-17T00:59:09.122Z,3.60
2022-09-17T01:01:39.074Z,3.00
2022-09-17T01:04:07.382Z,3.63
2022-09-17T01:06:40.918Z,3.10
2022-09-17T01:09:26.403Z,3.22
2022-09-17T01:12:08.089Z,3.00
2022-09-17T01:14:49.625Z,3.00
2022-09-17T01:17:23.350Z,3.22
2022-09-17T01:20:18.921Z,3.55
2022-09-17T01:23:00.236Z,3.13
2022-09-17T01:25:37.283Z,3.28
2022-09-17T01:28:33.945Z,3.60
2022-09-17T01:31:18.555Z,3.20
2022-09-17T01:33:54.234Z,3.30
2022-09-17T01:36:34.311Z,3.50
2022-09-17T01:39:08.528Z,3.30
2022-09-17T01:41:44.431Z,3.55
2022-09-17T01:44:18.788Z,3.20
2022-09-17T01:46:52.575Z,3.40
2022-09-17T01:49:23.014Z,3.85
2022-09-17T01:51:52.640Z,3.35
2022-09-17T01:54:26.289Z,3.47
2022-09-17T01:56:59.179Z,3.45
2022-09-17T01:59:32.838Z,3.35
2022-09-17T02:02:08.499Z,3.63
2022-09-17T02:04:39.705Z,3.70
2022-09-17T02:07:12.473Z,3.42
2022-09-17T02:09:44.589Z,3.67
2022-09-17T02:12:17.051Z,3.60
2022-09-17T02:14:50.667Z,3.38
2022-09-17T02:17:27.049Z,3.90
2022-09-17T02:19:56.463Z,3.97
2022-09-17T02:22:28.985Z,3.80
2022-09-17T02:25:05.672Z,3.63
2022-09-17T02:27:46.069Z,3.55
2022-09-17T02:30:15.121Z,3.40
2022-09-17T02:32:45.249Z,3.72
2022-09-17T02:35:15.293Z,4.03
2022-09-17T02:37:43.989Z,3.30
2022-09-17T02:40:15.191Z,3.60
2022-09-17T02:43:04.998Z,3.63
2022-09-17T02:45:46.221Z,3.80
2022-09-17T02:48:27.289Z,4.03
2022-09-17T02:51:15.150Z,4.03
2022-09-17T02:53:52.254Z,4.05
2022-09-17T02:56:28.018Z,3.67
2022-09-17T02:59:02.822Z,3.90
2022-09-17T03:01:36.774Z,3.90
2022-09-17T03:04:10.288Z,4.43
2022-09-17T03:06:38.895Z,3.95
2022-09-17T03:09:06.978Z,3.88
2022-09-17T03:11:35.049Z,3.50
2022-09-17T03:14:03.134Z,4.25
2022-09-17T03:16:31.254Z,4.10
2022-09-17T03:18:59.492Z,4.22
2022-09-17T03:21:29.078Z,4.00
2022-09-17T03:24:00.738Z,4.03
2022-09-17T03:26:28.746Z,3.90
2022-09-17T03:28:56.886Z,4.88
2022-09-17T03:31:25.017Z,4.30
2022-09-17T03:33:53.060Z,4.30
2022-09-17T03:36:21.112Z,4.07
2022-09-17T03:38:50.448Z,4.30
2022-09-17T03:41:21.611Z,4.55
2022-09-17T03:43:49.861Z,4.30
2022-09-17T03:46:19.029Z,4.55
2022-09-17T03:48:47.148Z,4.75
2022-09-17T03:51:15.309Z,4.30
2022-09-17T03:53:43.379Z,4.55
2022-09-17T03:56:12.661Z,4.25
2022-09-17T03:58:40.634Z,4.40
2022-09-17T04:01:08.579Z,4.00
2022-09-17T04:03:36.723Z,4.35
2022-09-17T04:06:04.850Z,4.28
2022-09-17T04:08:32.876Z,4.40
2022-09-17T04:11:00.897Z,4.68
2022-09-17T04:13:30.248Z,4.65
2022-09-17T04:15:58.332Z,4.33
2022-09-17T04:18:26.619Z,5.00
2022-09-17T04:20:54.618Z,4.47
2022-09-17T04:23:22.862Z,4.00
2022-09-17T04:25:50.928Z,4.50
2022-09-17T04:28:18.901Z,4.32
2022-09-17T04:30:49.522Z,4.13
2022-09-17T04:33:17.790Z,4.40
2022-09-17T04:35:46.586Z,4.22
2022-09-17T04:38:18.499Z,4.47
2022-09-17T04:40:47.424Z,4.40
2022-09-17T04:43:15.576Z,4.35
2022-09-17T04:45:46.316Z,4.30
2022-09-17T04:48:15.818Z,4.57
2022-09-17T04:50:43.966Z,4.40
2022-09-17T04:53:12.610Z,4.95
2022-09-17T04:55:40.686Z,4.20
2022-09-17T04:58:08.710Z,5.20
2022-09-17T05:00:36.794Z,4.18
2022-09-17T05:03:05.059Z,4.38
2022-09-17T05:05:34.377Z,4.35
2022-09-17T05:08:02.884Z,4.50
2022-09-17T05:10:30.845Z,4.45
2022-09-17T05:12:58.946Z,4.45
2022-09-17T05:15:27.860Z,4.25
2022-09-17T05:17:55.967Z,4.38
2022-09-17T05:20:23.964Z,4.38
2022-09-17T05:22:53.780Z,4.50
2022-09-17T05:25:24.866Z,3.95
2022-09-17T05:27:54.031Z,4.35
2022-09-17T05:30:22.319Z,3.90
2022-09-17T05:32:50.620Z,3.97
2022-09-17T05:35:18.731Z,4.03
2022-09-17T05:37:46.810Z,3.80
2022-09-17T05:40:19.422Z,3.47
2022-09-17T05:42:47.525Z,3.97
2022-09-17T05:45:15.583Z,3.40
2022-09-17T05:47:43.543Z,3.60
2022-09-17T05:50:11.558Z,3.38
2022-09-17T05:52:39.566Z,3.80
2022-09-17T05:55:10.790Z,3.75
2022-09-17T05:57:40.214Z,3.70
2022-09-17T06:00:09.292Z,3.10
2022-09-17T06:02:40.387Z,3.30
2022-09-17T06:05:09.133Z,3.15
2022-09-17T06:07:37.616Z,3.03
2022-09-17T06:10:08.294Z,2.90
2022-09-17T06:12:36.562Z,3.08
2022-09-17T06:15:06.763Z,2.78
2022-09-17T06:17:35.491Z,2.70
2022-09-17T06:20:05.283Z,2.83
2022-09-17T06:22:33.740Z,2.95
2022-09-17T06:25:03.815Z,2.78
2022-09-17T06:27:33.624Z,2.88
2022-09-17T06:30:01.623Z,2.60
2022-09-17T06:32:31.251Z,2.55
2022-09-17T06:34:59.496Z,2.50
2022-09-17T06:37:29.800Z,2.10
2022-09-17T06:39:59.315Z,2.10
2022-09-17T06:42:28.575Z,2.20
2022-09-17T06:45:00.372Z,2.00
2022-09-17T06:47:31.402Z,2.20
2022-09-17T06:49:59.921Z,2.10
2022-09-17T06:52:27.989Z,1.90
2022-09-17T06:54:56.155Z,2.47
2022-09-17T06:57:27.345Z,2.10
2022-09-17T06:59:55.611Z,1.90
2022-09-17T07:02:26.505Z,2.05
2022-09-17T07:04:55.919Z,1.88
2022-09-17T07:07:23.856Z,1.80
2022-09-17T07:09:53.739Z,1.80
2022-09-17T07:12:21.973Z,1.77
2022-09-17T07:14:50.282Z,2.47
2022-09-17T07:17:19.110Z,2.08
2022-09-17T07:19:47.105Z,2.20
2022-09-17T07:22:16.553Z,2.38
2022-09-17T07:24:53.416Z,2.00
2022-09-17T07:27:37.635Z,2.28
2022-09-17T07:30:07.034Z,1.95
2022-09-17T07:32:35.195Z,2.22
2022-09-17T07:35:06.931Z,2.00
2022-09-17T07:37:36.399Z,2.50
2022-09-17T07:40:05.452Z,2.22
2022-09-17T07:42:34.230Z,1.88
2022-09-17T07:45:02.560Z,2.10
2022-09-17T07:47:30.659Z,2.22
2022-09-17T07:49:58.609Z,2.40
2022-09-17T07:52:27.692Z,2.60
2022-09-17T07:54:57.036Z,2.35
2022-09-17T07:57:25.139Z,2.22
2022-09-17T07:59:53.119Z,2.42
2022-09-17T08:02:24.494Z,2.80
2022-09-17T08:04:53.212Z,2.65
2022-09-17T08:07:21.153Z,2.58
2022-09-17T08:09:49.806Z,2.35
2022-09-17T08:12:19.571Z,2.33
2022-09-17T08:14:47.634Z,2.42
2022-09-17T08:17:18.648Z,2.22
2022-09-17T08:19:46.699Z,2.40
2022-09-17T08:22:14.704Z,1.92
2022-09-17T08:24:43.100Z,2.10
2022-09-17T08:27:11.087Z,2.20
2022-09-17T08:29:40.463Z,2.40
2022-09-17T08:32:08.406Z,2.30
2022-09-17T08:34:37.230Z,2.47
2022-09-17T08:37:05.247Z,2.10
2022-09-17T08:39:33.301Z,2.00
2022-09-17T08:42:10.655Z,2.53
2022-09-17T08:44:45.302Z,2.60
2022-09-17T08:47:18.634Z,2.17
2022-09-17T08:49:51.960Z,2.40
2022-09-17T08:52:49.995Z,2.30
2022-09-17T08:55:35.050Z,1.85
2022-09-17T08:58:38.139Z,2.38
2022-09-17T09:01:18.304Z,2.28
2022-09-17T09:04:02.361Z,2.25
2022-09-17T09:06:35.400Z,2.10
2022-09-17T09:09:06.534Z,2.25
2022-09-17T09:11:35.940Z,2.30
2022-09-17T09:14:12.449Z,1.77
2022-09-17T09:16:45.192Z,2.10
2022-09-17T09:19:21.726Z,1.98
2022-09-17T09:22:04.292Z,1.98
2022-09-17T09:24:42.198Z,1.70
2022-09-17T09:27:18.979Z,1.83
2022-09-17T09:30:02.090Z,1.77
2022-09-17T09:32:45.545Z,1.85
2022-09-17T09:35:19.276Z,1.90
2022-09-17T09:37:55.779Z,2.00
2022-09-17T09:40:41.613Z,2.10
2022-09-17T09:43:18.227Z,2.20
2022-09-17T09:46:16.590Z,13.48
2022-09-17T09:48:56.727Z,31.35
2022-09-17T09:51:36.554Z,8.63
2022-09-17T09:54:18.570Z,3.05
2022-09-17T09:56:58.036Z,8.98
2022-09-17T09:59:27.444Z,8.52
2022-09-17T10:01:55.577Z,2.08
2022-09-17T10:04:29.857Z,2.05
2022-09-17T10:07:03.469Z,3.67
2022-09-17T10:09:32.893Z,3.20
2022-09-17T10:12:03.060Z,2.63
2022-09-17T10:14:32.375Z,1.52
2022-09-17T10:17:24.135Z,1.77
2022-09-17T10:20:26.493Z,2.00
2022-09-17T10:22:54.597Z,2.25
2022-09-17T10:25:29.504Z,2.30
2022-09-17T10:27:58.565Z,1.77
2022-09-17T10:30:27.543Z,1.88
2022-09-17T10:33:21.039Z,2.20
2022-09-17T10:35:59.468Z,1.90
2022-09-17T10:38:32.931Z,2.28
2022-09-17T10:41:23.149Z,1.80
2022-09-17T10:43:52.141Z,1.73
2022-09-17T10:46:27.877Z,1.88
2022-09-17T10:49:10.089Z,2.20
2022-09-17T10:51:40.232Z,2.25
2022-09-17T10:54:34.093Z,2.08
2022-09-17T10:57:03.187Z,1.90
2022-09-17T10:59:47.955Z,1.90
2022-09-17T11:02:41.869Z,1.85
2022-09-17T11:05:29.281Z,2.30
2022-09-17T11:08:05.722Z,2.00
2022-09-17T11:10:41.135Z,1.80
2022-09-17T11:13:22.262Z,1.70
2022-09-17T11:16:05.635Z,1.58
2022-09-17T11:18:38.678Z,1.63
2022-09-17T11:21:35.937Z,2.30
2022-09-17T11:24:45.716Z,2.03
2022-09-17T11:27:36.258Z,2.15
2022-09-17T11:30:11.102Z,1.90
2022-09-17T11:33:09.578Z,2.50
2022-09-17T11:35:42.115Z,1.92
2022-09-17T11:38:17.708Z,2.22
2022-09-17T11:40:51.274Z,2.10
2022-09-17T11:43:27.283Z,1.95
2022-09-17T11:46:01.391Z,2.20
2022-09-17T11:48:36.548Z,2.63
2022-09-17T11:51:14.008Z,2.17
2022-09-17T11:53:45.709Z,2.03
2022-09-17T11:56:22.186Z,1.95
2022-09-17T11:58:54.703Z,1.90
2022-09-17T12:01:30.687Z,1.48
2022-09-17T12:04:02.362Z,1.65
2022-09-17T12:06:39.173Z,1.42
2022-09-17T12:09:16.380Z,1.60
2022-09-17T12:11:51.202Z,1.70
2022-09-17T12:14:24.504Z,1.55
2022-09-17T12:16:58.507Z,2.03
2022-09-17T12:19:32.207Z,1.50
2022-09-17T12:22:05.379Z,1.60
2022-09-17T12:24:33.733Z,1.50
2022-09-17T12:27:15.329Z,1.60
2022-09-17T12:30:05.445Z,1.48
2022-09-17T12:32:57.801Z,1.35
2022-09-17T12:36:03.932Z,1.20
2022-09-17T12:39:02.805Z,1.60
2022-09-17T12:41:42.553Z,1.40
2022-09-17T12:44:32.750Z,1.35
2022-09-17T12:47:17.747Z,1.55
2022-09-17T12:50:02.529Z,1.33
2022-09-17T12:52:44.009Z,1.50
2022-09-17T12:55:44.416Z,1.50
2022-09-17T12:58:28.952Z,1.67
2022-09-17T13:01:04.864Z,1.42
2022-09-17T13:03:38.805Z,1.63
2022-09-17T13:06:53.192Z,1.55
2022-09-17T13:09:57.992Z,1.58
2022-09-17T13:12:31.617Z,2.00
2022-09-17T13:15:43.257Z,1.60
2022-09-17T13:18:26.508Z,2.08
2022-09-17T13:21:04.299Z,1.60
2022-09-17T13:23:40.398Z,1.77
2022-09-17T13:26:09.791Z,1.63
2022-09-17T13:28:46.999Z,1.73
2022-09-17T13:31:22.064Z,2.10
2022-09-17T13:33:57.117Z,1.70
2022-09-17T13:36:43.667Z,1.60
2022-09-17T13:39:33.455Z,1.73
2022-09-17T13:42:06.674Z,1.95
2022-09-17T13:44:37.479Z,2.17
2022-09-17T13:47:21.682Z,2.10
2022-09-17T13:49:55.231Z,1.98
2022-09-17T13:52:33.718Z,1.98
2022-09-17T13:55:02.691Z,1.88
2022-09-17T13:57:33.508Z,2.10
2022-09-17T14:00:03.030Z,2.03
2022-09-17T14:02:39.846Z,2.28
2022-09-17T14:05:39.009Z,2.25
2022-09-17T14:08:31.472Z,2.60
2022-09-17T14:11:05.856Z,2.47
2022-09-17T14:13:47.864Z,2.55
2022-09-17T14:16:41.672Z,2.35
2022-09-17T14:19:25.247Z,2.60
2022-09-17T14:22:04.147Z,2.88
2022-09-17T14:24:37.558Z,2.95
2022-09-17T14:27:15.345Z,2.70
2022-09-17T14:30:00.279Z,2.65
2022-09-17T14:32:33.186Z,3.13
2022-09-17T14:35:03.540Z,3.60
2022-09-17T14:37:34.859Z,3.10
2022-09-17T14:40:09.494Z,3.08
2022-09-17T14:42:39.319Z,2.80
2022-09-17T14:45:15.130Z,3.03
2022-09-17T14:47:43.260Z,2.90
2022-09-17T14:50:32.271Z,2.95
2022-09-17T14:53:09.699Z,2.80
2022-09-17T14:55:43.292Z,3.03
2022-09-17T14:58:31.546Z,3.35
2022-09-17T15:00:59.881Z,3.58
2022-09-17T15:03:28.104Z,2.90
2022-09-17T15:05:56.484Z,3.20
2022-09-17T15:08:28.899Z,2.70
2022-09-17T15:11:00.034Z,3.65
2022-09-17T15:13:29.942Z,2.90
2022-09-17T15:16:02.212Z,3.10
2022-09-17T15:18:37.158Z,3.50
2022-09-17T15:21:15.346Z,3.83
2022-09-17T15:23:48.599Z,3.67
2022-09-17T15:26:22.458Z,3.17
2022-09-17T15:28:51.594Z,3.30
2022-09-17T15:31:20.721Z,2.90
2022-09-17T15:33:49.335Z,2.80
2022-09-17T15:36:24.981Z,3.13
2022-09-17T15:38:55.384Z,3.25
2022-09-17T15:41:30.137Z,3.20
2022-09-17T15:44:29.778Z,3.00
2022-09-17T15:47:34.469Z,3.25
2022-09-17T15:50:13.645Z,3.40
2022-09-17T15:52:42.435Z,3.42
2022-09-17T15:55:30.605Z,3.35
2022-09-17T15:57:59.731Z,3.42
2022-09-17T16:00:28.073Z,3.78
2022-09-17T16:02:56.776Z,3.67
2022-09-17T16:05:51.775Z,3.58
2022-09-17T16:08:24.785Z,3.97
2022-09-17T16:10:54.371Z,3.65
2022-09-17T16:13:25.295Z,4.03
2022-09-17T16:15:57.020Z,3.63
2022-09-17T16:18:25.058Z,3.80
2022-09-17T16:20:53.100Z,4.07
2022-09-17T16:23:21.150Z,3.92
2022-09-17T16:25:49.525Z,4.68
2022-09-17T16:28:20.981Z,4.50
2022-09-17T16:30:50.306Z,5.10
2022-09-17T16:33:19.292Z,5.28
2022-09-17T16:35:47.365Z,5.32
2022-09-17T16:38:15.711Z,4.97
2022-09-17T16:40:46.650Z,5.05
2022-09-17T16:43:15.121Z,4.97
2022-09-17T16:45:44.488Z,5.40
2022-09-17T16:48:12.528Z,5.47
2022-09-17T16:50:43.021Z,5.20
2022-09-17T16:53:11.165Z,5.60
2022-09-17T16:55:40.183Z,5.43
2022-09-17T16:58:08.201Z,5.38
2022-09-17T17:00:37.416Z,5.80
2022-09-17T17:03:07.464Z,6.32
2022-09-17T17:05:38.791Z,6.07
2022-09-17T17:08:07.685Z,6.18
2022-09-17T17:10:35.798Z,5.85
2022-09-17T17:13:03.940Z,5.70
2022-09-17T17:15:31.933Z,6.30
2022-09-17T17:18:00.059Z,6.18
2022-09-17T17:20:29.584Z,6.03
2022-09-17T17:22:57.613Z,6.18
2022-09-17T17:25:27.150Z,6.25
2022-09-17T17:27:55.502Z,6.80
2022-09-17T17:30:23.647Z,7.07
2022-09-17T17:32:53.421Z,7.47
2022-09-17T17:35:21.931Z,8.25
2022-09-17T17:37:51.383Z,8.20
2022-09-17T17:40:22.674Z,7.95
2022-09-17T17:42:53.526Z,9.43
2022-09-17T17:45:21.738Z,8.75
2022-09-17T17:47:50.079Z,9.00
2022-09-17T17:50:18.102Z,9.02
2022-09-17T17:52:48.209Z,8.32
2022-09-17T17:55:18.143Z,8.75
2022-09-17T17:57:46.189Z,8.23
2022-09-17T18:00:16.719Z,8.60
2022-09-17T18:02:45.099Z,8.43
2022-09-17T18:05:13.344Z,8.73
2022-09-17T18:07:41.713Z,9.50
2022-09-17T18:10:10.833Z,9.65
2022-09-17T18:12:40.438Z,10.32
2022-09-17T18:15:09.426Z,9.88
2022-09-17T18:17:37.437Z,9.50
2022-09-17T18:20:06.745Z,9.18
2022-09-17T18:22:34.905Z,9.68
2022-09-17T18:25:03.092Z,9.15
2022-09-17T18:27:31.415Z,9.50
2022-09-17T18:30:00.884Z,10.45
2022-09-17T18:32:29.230Z,9.65
2022-09-17T18:34:57.307Z,10.50
2022-09-17T18:37:25.373Z,11.05
2022-09-17T18:39:58.499Z,12.63
2022-09-17T18:42:27.570Z,12.15
2022-09-17T18:44:55.763Z,11.70
2022-09-17T18:47:25.112Z,12.05
2022-09-17T18:49:53.175Z,12.38
2022-09-17T18:52:21.976Z,13.63
2022-09-17T18:54:50.102Z,13.30
2022-09-17T18:57:18.298Z,13.95
2022-09-17T18:59:46.405Z,14.95
2022-09-17T19:02:14.800Z,16.27
2022-09-17T19:04:47.794Z,15.98
2022-09-17T19:07:16.485Z,16.75
2022-09-17T19:09:45.062Z,17.10
2022-09-17T19:12:13.373Z,17.85
2022-09-17T19:14:41.366Z,17.55
2022-09-17T19:17:12.502Z,17.63
2022-09-17T19:19:40.783Z,17.92
2022-09-17T19:22:10.154Z,17.85
2022-09-17T19:24:38.419Z,17.48
2022-09-17T19:27:07.654Z,18.38
2022-09-17T19:29:35.936Z,18.38
2022-09-17T19:32:04.484Z,17.20
2022-09-17T19:34:33.103Z,17.08
2022-09-17T19:37:01.273Z,18.02
2022-09-17T19:39:30.679Z,17.55
2022-09-17T19:41:58.872Z,16.27
2022-09-17T19:44:27.792Z,16.98
2022-09-17T19:46:56.388Z,17.80
2022-09-17T19:49:24.845Z,16.90
2022-09-17T19:51:54.821Z,16.98
2022-09-17T19:54:23.187Z,16.50
2022-09-17T19:56:52.658Z,16.52
2022-09-17T19:59:23.889Z,16.63
2022-09-17T20:01:52.183Z,16.60
2022-09-17T20:04:20.280Z,16.67
2022-09-17T20:06:48.661Z,17.48
2022-09-17T20:09:18.122Z,16.52
2022-09-17T20:11:47.376Z,16.50
2022-09-17T20:14:17.578Z,19.15
2022-09-17T20:16:48.882Z,17.55
2022-09-17T20:19:17.817Z,18.40
2022-09-17T20:21:46.373Z,17.45
2022-09-17T20:24:15.002Z,17.52
2022-09-17T20:26:43.362Z,16.75
2022-09-17T20:29:11.795Z,18.38
2022-09-17T20:31:44.655Z,17.25
2022-09-17T20:34:13.148Z,18.17
2022-09-17T20:36:41.682Z,17.13
2022-09-17T20:39:16.776Z,17.17
2022-09-17T20:41:49.449Z,16.85
2022-09-17T20:44:17.831Z,17.05
2022-09-17T20:46:47.884Z,16.95
2022-09-17T20:49:16.071Z,17.35
2022-09-17T20:51:44.304Z,19.35
2022-09-17T20:54:12.525Z,18.63
2022-09-17T20:56:40.881Z,17.73
2022-09-17T20:59:14.559Z,19.05
2022-09-17T21:01:44.934Z,17.48
2022-09-17T21:04:16.523Z,17.58
2022-09-17T21:06:45.206Z,18.73
2022-09-17T21:09:16.534Z,18.15
2022-09-17T21:11:45.192Z,19.63
2022-09-17T21:14:15.321Z,18.30
2022-09-17T21:16:46.911Z,17.73
2022-09-17T21:19:19.976Z,20.05
2022-09-17T21:21:51.819Z,17.92
2022-09-17T21:24:19.859Z,18.52
2022-09-17T21:26:48.236Z,18.35
2022-09-17T21:29:17.250Z,17.67
2022-09-17T21:31:45.653Z,17.80
2022-09-17T21:34:16.305Z,17.67
2022-09-17T21:36:49.179Z,19.40
2022-09-17T21:39:18.739Z,18.52
2022-09-17T21:41:48.102Z,18.38
2022-09-17T21:44:18.730Z,17.88
2022-09-17T21:46:46.786Z,18.25
2022-09-17T21:49:17.488Z,18.80
2022-09-17T21:51:45.429Z,18.33
2022-09-17T21:54:16.011Z,19.38
2022-09-17T21:56:44.196Z,17.30
2022-09-17T21:59:14.799Z,16.38
2022-09-17T22:01:46.405Z,16.67
2022-09-17T22:04:17.931Z,16.80
2022-09-17T22:06:46.840Z,16.02
2022-09-17T22:09:16.151Z,17.33
2022-09-17T22:11:45.992Z,16.95
2022-09-17T22:14:18.028Z,15.95
2022-09-17T22:16:50.933Z,14.63
2022-09-17T22:19:22.036Z,14.55
2022-09-17T22:21:52.400Z,14.57
2022-09-17T22:24:21.947Z,14.57
2022-09-17T22:26:56.534Z,15.02
2022-09-17T22:29:25.645Z,14.60
2022-09-17T22:31:53.820Z,14.90
2022-09-17T22:34:25.903Z,15.00
2022-09-17T22:36:54.124Z,14.50
2022-09-17T22:39:22.468Z,14.73
2022-09-17T22:41:51.075Z,14.95
2022-09-17T22:44:20.605Z,13.73
2022-09-17T22:46:51.754Z,13.73
2022-09-17T22:49:20.534Z,13.65
2022-09-17T22:51:49.996Z,13.13
2022-09-17T22:54:19.535Z,13.60
2022-09-17T22:56:50.384Z,12.40
2022-09-17T22:59:19.184Z,11.60
2022-09-17T23:01:47.510Z,11.68
2022-09-17T23:04:15.752Z,11.55
2022-09-17T23:06:46.731Z,11.43
2022-09-17T23:09:16.456Z,11.43
2022-09-17T23:11:45.197Z,11.55
2022-09-17T23:14:14.487Z,11.25
2022-09-17T23:16:44.480Z,10.65
2022-09-17T23:19:13.223Z,10.02
2022-09-17T23:21:41.522Z,10.20
2022-09-17T23:24:10.192Z,11.02
2022-09-17T23:26:39.614Z,10.18
2022-09-17T23:29:08.193Z,9.55
2022-09-17T23:31:36.557Z,9.88
2022-09-17T23:34:06.279Z,9.50
2022-09-17T23:36:36.245Z,10.15
2022-09-17T23:39:06.447Z,9.05
2022-09-17T23:41:36.567Z,9.85
2022-09-17T23:44:13.762Z,8.68
2022-09-17T23:46:50.128Z,8.73
2022-09-17T23:49:18.236Z,8.00
2022-09-17T23:51:46.430Z,7.90
2022-09-17T23:54:14.681Z,8.60
2022-09-17T23:56:43.138Z,8.30
2022-09-17T23:59:12.806Z,8.13
